Time;durP1;ratioP1;P1;durP2;ratioP2;P2;SDS_P1;SDS_P2;PMS_P1;PMS_P2;Temp;Humidity;BMP_temperature;BMP_pressure;BME280_temperature;BME280_humidity;BME280_pressure;Samples;Min_cycle;Max_cycle;Signal;HPM_P1;HPM_P2
2022/04/07 00:01:19;;;;;;;18.10;5.20;;;;;;;8.05;68.86;98532.69;105934;1270;25068;-64
2022/04/07 00:03:50;;;;;;;17.40;5.60;;;;;;;8.00;68.88;98530.36;105680;1270;22565;-64
2022/04/07 00:06:22;;;;;;;18.30;4.70;;;;;;;7.97;69.00;98531.58;105768;1270;25292;-64
2022/04/07 00:08:53;;;;;;;14.40;5.00;;;;;;;7.96;69.02;98531.77;105813;1270;24351;-64
2022/04/07 00:11:25;;;;;;;14.20;4.90;;;;;;;7.93;69.03;98529.44;105718;1270;22599;-64
2022/04/07 00:13:59;;;;;;;13.60;4.40;;;;;;;7.90;69.00;98525.73;105829;1270;22685;-64
2022/04/07 00:16:30;;;;;;;15.90;5.00;;;;;;;7.87;69.14;98521.50;105778;1270;24316;-64
2022/04/07 00:19:02;;;;;;;14.30;4.40;;;;;;;7.84;69.09;98516.95;105914;1270;24224;-64
2022/04/07 00:21:38;;;;;;;11.60;3.90;;;;;;;7.82;69.30;98521.80;106011;1270;22647;-64
2022/04/07 00:24:11;;;;;;;12.80;3.60;;;;;;;7.79;69.43;98513.20;105762;1270;28964;-64
2022/04/07 00:26:43;;;;;;;10.40;2.90;;;;;;;7.77;69.36;98512.84;105977;1270;22536;-64
2022/04/07 00:29:14;;;;;;;12.80;3.40;;;;;;;7.75;69.49;98514.16;105847;1270;22560;-65
2022/04/07 00:31:53;;;;;;;11.40;3.10;;;;;;;7.74;69.44;98511.07;105756;1270;22609;-66
2022/04/07 00:34:25;;;;;;;17.10;3.40;;;;;;;7.74;69.55;98507.73;105710;1270;23685;-64
2022/04/07 00:36:57;;;;;;;15.30;3.50;;;;;;;7.72;69.64;98503.84;105752;1270;24235;-63
2022/04/07 00:39:28;;;;;;;12.20;2.80;;;;;;;7.71;69.91;98501.61;105793;1270;22540;-63
2022/04/07 00:42:00;;;;;;;12.30;2.90;;;;;;;7.71;69.82;98502.01;105822;1270;22506;-65
2022/04/07 00:44:33;;;;;;;12.90;2.50;;;;;;;7.71;70.19;98501.51;105739;1270;25312;-64
2022/04/07 00:47:06;;;;;;;12.00;2.90;;;;;;;7.72;70.34;98498.42;105710;1270;22544;-63
2022/04/07 00:49:38;;;;;;;8.60;2.60;;;;;;;7.74;70.54;98496.97;105705;1270;23598;-63
2022/04/07 00:52:11;;;;;;;10.80;2.60;;;;;;;7.74;70.54;98493.89;105749;1270;23133;-64
2022/04/07 00:54:43;;;;;;;13.40;3.40;;;;;;;7.75;70.66;98491.77;105753;1270;22528;-62
2022/04/07 00:57:16;;;;;;;9.40;2.50;;;;;;;7.76;70.75;98490.81;105685;1270;22546;-63
2022/04/07 00:59:48;;;;;;;12.50;3.30;;;;;;;7.77;70.63;98492.38;106328;1261;22538;-52
2022/04/07 01:02:20;;;;;;;9.50;2.80;;;;;;;7.76;70.57;98490.71;106014;1270;22525;-52
2022/04/07 01:04:52;;;;;;;13.10;3.40;;;;;;;7.74;70.45;98487.58;105937;1270;25203;-51
2022/04/07 01:07:25;;;;;;;11.90;2.90;;;;;;;7.73;70.55;98485.45;105994;1270;22595;-51
2022/04/07 01:09:57;;;;;;;10.90;3.10;;;;;;;7.71;70.70;98484.60;105872;1271;22555;-52
2022/04/07 01:12:28;;;;;;;13.30;3.50;;;;;;;7.70;70.90;98487.17;106216;1271;24705;-54
2022/04/07 01:15:02;;;;;;;8.80;2.80;;;;;;;7.69;70.89;98483.02;105996;1271;24245;-50
2022/04/07 01:17:35;;;;;;;13.40;3.60;;;;;;;7.68;71.13;98481.55;105923;1271;25239;-50
2022/04/07 01:20:08;;;;;;;9.10;2.50;;;;;;;7.68;71.14;98478.11;106067;1271;24402;-53
2022/04/07 01:22:46;;;;;;;11.70;2.80;;;;;;;7.69;71.22;98480.85;106155;1271;24198;-50
2022/04/07 01:25:17;;;;;;;10.90;2.30;;;;;;;7.70;71.23;98480.89;105935;1271;22541;-55
2022/04/07 01:27:49;;;;;;;10.00;2.40;;;;;;;7.70;71.37;98481.41;106048;1271;24322;-53
2022/04/07 01:30:21;;;;;;;11.10;2.90;;;;;;;7.72;71.59;98483.69;106033;1270;25331;-50
2022/04/07 01:32:56;;;;;;;9.70;2.90;;;;;;;7.73;71.64;98480.91;106037;1270;22525;-51
2022/04/07 01:35:27;;;;;;;10.10;3.00;;;;;;;7.75;71.84;98479.02;106028;1270;24436;-51
2022/04/07 01:38:00;;;;;;;12.70;3.20;;;;;;;7.77;71.73;98474.01;106015;1270;22564;-53
2022/04/07 01:40:36;;;;;;;11.20;3.10;;;;;;;7.80;72.02;98467.69;105911;1270;22525;-50
2022/04/07 01:43:09;;;;;;;9.80;2.70;;;;;;;7.84;71.96;98468.55;106025;1271;26115;-53
2022/04/07 01:45:41;;;;;;;10.60;2.80;;;;;;;7.87;71.97;98467.95;106019;1271;25295;-51
2022/04/07 01:48:13;;;;;;;8.50;2.30;;;;;;;7.90;71.97;98469.27;105996;1270;24228;-54
2022/04/07 01:50:46;;;;;;;7.50;2.00;;;;;;;7.93;71.89;98467.71;105981;1271;22531;-52
2022/04/07 01:53:17;;;;;;;8.10;1.70;;;;;;;7.96;72.01;98470.09;106046;1271;22522;-53
2022/04/07 01:55:50;;;;;;;8.10;2.00;;;;;;;7.98;71.93;98469.17;105783;1270;22541;-52
2022/04/07 01:58:22;;;;;;;9.50;2.20;;;;;;;8.01;71.96;98464.63;105990;1270;23788;-54
2022/04/07 02:00:54;;;;;;;8.80;1.80;;;;;;;8.03;71.84;98463.92;105877;1270;22538;-53
2022/04/07 02:03:26;;;;;;;10.10;2.40;;;;;;;8.05;72.00;98463.71;106013;1271;22534;-50
2022/04/07 02:06:12;;;;;;;8.20;1.90;;;;;;;8.07;71.92;98462.55;106094;1270;22541;-53
2022/04/07 02:08:44;;;;;;;8.50;2.10;;;;;;;8.09;71.94;98461.80;106224;1271;22837;-55
2022/04/07 02:11:16;;;;;;;6.90;1.70;;;;;;;8.12;71.91;98461.35;106021;1270;22524;-51
2022/04/07 02:13:48;;;;;;;11.00;1.70;;;;;;;8.14;71.97;98457.31;105941;1270;22561;-51
2022/04/07 02:16:22;;;;;;;7.80;1.70;;;;;;;8.16;71.95;98458.13;106063;1270;22616;-53
2022/04/07 02:18:53;;;;;;;7.20;1.50;;;;;;;8.17;71.99;98458.89;105978;1270;25343;-53
2022/04/07 02:21:24;;;;;;;8.40;1.70;;;;;;;8.18;71.97;98454.83;106043;1271;24231;-54
2022/04/07 02:23:56;;;;;;;8.50;1.80;;;;;;;8.16;71.84;98455.19;106060;1271;24272;-52
2022/04/07 02:26:28;;;;;;;10.10;2.70;;;;;;;8.15;71.84;98449.58;106002;1271;22648;-51
2022/04/07 02:29:00;;;;;;;8.30;2.10;;;;;;;8.14;71.81;98443.61;105938;1270;24211;-51
2022/04/07 02:31:32;;;;;;;9.60;2.30;;;;;;;8.12;71.71;98440.79;106267;1271;24215;-52
2022/04/07 02:34:06;;;;;;;11.00;2.30;;;;;;;8.11;71.81;98444.42;106106;1271;24323;-50
2022/04/07 02:36:38;;;;;;;10.50;2.00;;;;;;;8.10;71.87;98447.30;105982;1270;22728;-52
2022/04/07 02:39:10;;;;;;;8.60;2.10;;;;;;;8.08;71.69;98446.19;106092;1270;25381;-51
2022/04/07 02:41:41;;;;;;;11.70;2.80;;;;;;;8.06;71.74;98444.98;105963;1270;25413;-55
2022/04/07 02:44:12;;;;;;;10.50;3.10;;;;;;;8.02;71.69;98446.39;106025;1270;22507;-52
2022/04/07 02:46:44;;;;;;;12.00;2.90;;;;;;;7.99;71.73;98443.82;106131;1271;22554;-53
2022/04/07 02:49:16;;;;;;;12.30;2.90;;;;;;;7.97;71.80;98443.46;106130;1271;24371;-49
2022/04/07 02:51:47;;;;;;;10.60;2.80;;;;;;;7.95;71.84;98440.13;106197;1270;22532;-51
2022/04/07 02:54:19;;;;;;;9.30;2.30;;;;;;;7.94;72.00;98443.77;106062;1270;22548;-52
2022/04/07 02:56:50;;;;;;;7.00;1.90;;;;;;;7.93;71.98;98446.39;106055;1270;26489;-51
2022/04/07 02:59:22;;;;;;;9.10;1.90;;;;;;;7.92;72.08;98446.23;106073;1271;25355;-50
2022/04/07 03:01:56;;;;;;;8.10;2.10;;;;;;;7.90;71.96;98450.36;106002;1271;25306;-50
2022/04/07 03:04:27;;;;;;;7.90;2.10;;;;;;;7.91;72.07;98453.86;106111;1270;22531;-51
2022/04/07 03:06:59;;;;;;;8.80;1.90;;;;;;;7.90;71.97;98450.73;106164;1270;23907;-51
2022/04/07 03:09:30;;;;;;;7.70;1.70;;;;;;;7.90;71.81;98449.42;106074;1271;24389;-54
2022/04/07 03:12:02;;;;;;;6.90;1.60;;;;;;;7.88;71.86;98445.21;106009;1270;22548;-51
2022/04/07 03:14:34;;;;;;;9.90;1.90;;;;;;;7.85;71.70;98444.16;106007;1270;24222;-50
2022/04/07 03:17:05;;;;;;;9.10;1.50;;;;;;;7.84;71.83;98437.29;106029;1270;22521;-52
2022/04/07 03:19:37;;;;;;;6.10;1.60;;;;;;;7.81;71.85;98436.54;106017;1270;25362;-51
2022/04/07 03:22:08;;;;;;;9.90;1.70;;;;;;;7.79;71.71;98438.99;106046;1271;23101;-53
2022/04/07 03:24:40;;;;;;;12.30;2.60;;;;;;;7.78;71.69;98434.80;106031;1270;24406;-53
2022/04/07 03:27:11;;;;;;;16.40;4.50;;;;;;;7.77;71.75;98427.43;106068;1270;22528;-53
2022/04/07 03:29:43;;;;;;;15.40;5.20;;;;;;;7.77;71.75;98425.31;106125;1270;24293;-50
2022/04/07 03:32:14;;;;;;;12.60;3.30;;;;;;;7.76;71.74;98421.88;106035;1270;22660;-50
2022/04/07 03:34:45;;;;;;;16.70;4.80;;;;;;;7.73;71.78;98420.36;106179;1271;22571;-53
2022/04/07 03:37:17;;;;;;;10.80;2.90;;;;;;;7.70;71.75;98418.58;106065;1271;22574;-54
2022/04/07 03:39:49;;;;;;;13.20;3.40;;;;;;;7.67;71.92;98420.30;106059;1270;24402;-53
2022/04/07 03:42:21;;;;;;;13.30;3.10;;;;;;;7.64;71.87;98424.64;105976;1271;24250;-54
2022/04/07 03:44:52;;;;;;;13.80;3.70;;;;;;;7.61;71.92;98424.59;106029;1270;25297;-55
2022/04/07 03:47:24;;;;;;;12.90;4.40;;;;;;;7.59;71.81;98425.30;105975;1270;22536;-57
2022/04/07 03:49:56;;;;;;;15.80;5.30;;;;;;;7.58;71.86;98428.66;106069;1270;24315;-51
2022/04/07 03:52:28;;;;;;;13.10;4.30;;;;;;;7.55;71.84;98427.09;106070;1271;22537;-52
2022/04/07 03:54:59;;;;;;;13.00;3.50;;;;;;;7.52;71.96;98427.30;106005;1270;22882;-53
2022/04/07 03:57:31;;;;;;;12.70;3.80;;;;;;;7.48;71.94;98425.81;106168;1270;25858;-50
2022/04/07 04:00:04;;;;;;;16.70;4.10;;;;;;;7.46;72.03;98428.04;106032;1270;24240;-53
2022/04/07 04:02:35;;;;;;;14.10;4.40;;;;;;;7.42;72.18;98422.23;105946;1271;22531;-53
2022/04/07 04:05:07;;;;;;;10.90;3.20;;;;;;;7.38;72.25;98423.13;105853;1271;23255;-49
2022/04/07 04:07:39;;;;;;;11.90;3.20;;;;;;;7.34;72.44;98419.88;105945;1270;25366;-53
2022/04/07 04:10:11;;;;;;;9.70;2.70;;;;;;;7.31;72.48;98421.29;105955;1270;24293;-54
2022/04/07 04:12:43;;;;;;;11.30;3.20;;;;;;;7.27;72.72;98417.94;106240;1270;22540;-50
2022/04/07 04:15:14;;;;;;;12.20;3.50;;;;;;;7.25;72.70;98414.95;105959;1270;25216;-53
2022/04/07 04:17:45;;;;;;;10.20;3.20;;;;;;;7.23;72.93;98412.64;106039;1270;25300;-56
2022/04/07 04:20:17;;;;;;;10.40;2.40;;;;;;;7.20;72.82;98412.58;106000;1270;24412;-50
2022/04/07 04:22:50;;;;;;;9.10;2.80;;;;;;;7.19;73.02;98411.11;105910;1270;25471;-53
2022/04/07 04:25:22;;;;;;;9.90;2.60;;;;;;;7.15;73.17;98414.73;106016;1271;22544;-56
2022/04/07 04:27:54;;;;;;;8.20;2.50;;;;;;;7.14;73.34;98409.11;106104;1271;23916;-51
2022/04/07 04:30:26;;;;;;;11.00;2.90;;;;;;;7.14;73.53;98404.08;106421;1270;25184;-53
2022/04/07 04:32:57;;;;;;;11.80;3.60;;;;;;;7.14;73.65;98405.03;106020;1271;23212;-50
2022/04/07 04:35:29;;;;;;;10.40;3.00;;;;;;;7.13;73.65;98404.23;106074;1270;24057;-52
2022/04/07 04:38:00;;;;;;;11.50;3.00;;;;;;;7.14;73.63;98401.97;106141;1270;24218;-56
2022/04/07 04:40:32;;;;;;;9.90;3.00;;;;;;;7.16;73.77;98402.88;106088;1270;25365;-56
2022/04/07 04:43:03;;;;;;;11.80;3.20;;;;;;;7.16;73.93;98395.81;105989;1271;22548;-53
2022/04/07 04:45:34;;;;;;;8.80;2.60;;;;;;;7.17;73.98;98395.27;106054;1270;24399;-56
2022/04/07 04:48:07;;;;;;;10.00;2.40;;;;;;;7.20;74.01;98394.06;109414;1270;22551;-55
2022/04/07 04:50:39;;;;;;;11.00;2.80;;;;;;;7.22;74.01;98389.23;106224;1270;22536;-53
2022/04/07 04:53:10;;;;;;;8.80;2.30;;;;;;;7.25;74.17;98389.98;105883;1270;24322;-53
2022/04/07 04:55:42;;;;;;;10.80;2.50;;;;;;;7.26;74.15;98391.00;106065;1270;24240;-52
2022/04/07 04:58:14;;;;;;;8.00;2.10;;;;;;;7.28;74.18;98389.59;106198;1270;22546;-53
2022/04/07 05:00:46;;;;;;;9.20;2.30;;;;;;;7.31;74.20;98392.82;106087;1270;22553;-52
2022/04/07 05:03:18;;;;;;;8.80;2.10;;;;;;;7.33;74.16;98390.86;106011;1270;24229;-51
2022/04/07 05:05:51;;;;;;;7.10;2.00;;;;;;;7.35;74.16;98389.65;106070;1270;22657;-56
2022/04/07 05:08:23;;;;;;;9.80;2.00;;;;;;;7.37;74.22;98387.95;106051;1270;22596;-53
2022/04/07 05:10:55;;;;;;;8.70;2.10;;;;;;;7.40;74.31;98394.98;105997;1271;22872;-51
2022/04/07 05:13:27;;;;;;;7.60;2.30;;;;;;;7.44;74.35;98394.57;105949;1270;22544;-52
2022/04/07 05:15:58;;;;;;;8.00;1.90;;;;;;;7.47;74.33;98389.33;106084;1270;23197;-50
2022/04/07 05:18:30;;;;;;;10.50;2.60;;;;;;;7.51;74.44;98387.56;106191;1270;24220;-50
2022/04/07 05:21:02;;;;;;;9.20;2.40;;;;;;;7.55;74.41;98386.16;105908;1270;25531;-49
2022/04/07 05:23:34;;;;;;;9.30;2.20;;;;;;;7.60;74.48;98392.58;106079;1271;24274;-50
2022/04/07 05:26:06;;;;;;;14.40;3.20;;;;;;;7.63;74.51;98390.40;105959;1271;25219;-50
2022/04/07 05:28:37;;;;;;;9.80;2.10;;;;;;;7.68;74.47;98385.16;106011;1270;23674;-53
2022/04/07 05:31:09;;;;;;;15.70;2.80;;;;;;;7.72;74.57;98381.92;106107;1270;24909;-50
2022/04/07 05:33:40;;;;;;;13.00;2.60;;;;;;;7.77;74.47;98381.77;105989;1270;25232;-51
2022/04/07 05:36:12;;;;;;;11.90;2.70;;;;;;;7.82;74.58;98374.20;106013;1271;22550;-50
2022/04/07 05:38:43;;;;;;;9.40;2.50;;;;;;;7.88;74.51;98370.67;105971;1270;22645;-56
2022/04/07 05:41:14;;;;;;;13.10;3.00;;;;;;;7.95;74.51;98369.66;106014;1270;25573;-53
2022/04/07 05:43:46;;;;;;;11.40;3.10;;;;;;;8.00;74.63;98364.05;106197;1270;25341;-50
2022/04/07 05:46:18;;;;;;;13.90;2.80;;;;;;;8.05;74.49;98368.98;106085;1270;25508;-53
2022/04/07 05:48:50;;;;;;;9.30;2.50;;;;;;;8.10;74.62;98365.59;106079;1270;22529;-53
2022/04/07 05:51:22;;;;;;;10.90;2.40;;;;;;;8.15;74.60;98368.22;106086;1270;22550;-55
2022/04/07 05:53:53;;;;;;;11.50;2.70;;;;;;;8.22;74.59;98364.96;106102;1271;22516;-52
2022/04/07 05:56:27;;;;;;;11.50;2.80;;;;;;;8.29;74.49;98361.40;106166;1271;25305;-50
2022/04/07 05:58:59;;;;;;;10.10;2.30;;;;;;;8.36;74.49;98360.02;106054;1270;22613;-51
2022/04/07 06:01:31;;;;;;;10.40;2.50;;;;;;;8.42;74.50;98363.39;106038;1270;25225;-51
2022/04/07 06:04:03;;;;;;;12.90;2.70;;;;;;;8.47;74.46;98360.34;106126;1271;22526;-49
2022/04/07 06:06:35;;;;;;;10.30;2.50;;;;;;;8.55;74.39;98369.02;107983;1270;25468;-50
2022/04/07 06:09:08;;;;;;;11.40;2.70;;;;;;;8.62;74.25;98364.89;106231;1271;25705;-53
2022/04/07 06:11:40;;;;;;;10.00;2.00;;;;;;;8.68;74.32;98360.48;106124;1270;22541;-50
2022/04/07 06:14:11;;;;;;;10.00;2.20;;;;;;;8.75;74.25;98366.06;106099;1271;22560;-51
2022/04/07 06:16:43;;;;;;;10.70;2.10;;;;;;;8.82;74.18;98361.02;106086;1270;25339;-50
2022/04/07 06:19:15;;;;;;;10.70;2.60;;;;;;;8.89;74.14;98356.95;106150;1271;23089;-52
2022/04/07 06:21:47;;;;;;;9.60;2.00;;;;;;;8.96;73.95;98357.22;106024;1270;25236;-50
2022/04/07 06:24:19;;;;;;;9.80;2.10;;;;;;;9.02;74.03;98355.52;106073;1271;25230;-49
2022/04/07 06:26:51;;;;;;;7.50;2.10;;;;;;;9.08;73.91;98357.41;106181;1270;22561;-51
2022/04/07 06:29:24;;;;;;;7.30;2.10;;;;;;;9.14;73.99;98358.55;106174;1271;22524;-54
2022/04/07 06:31:56;;;;;;;8.00;2.00;;;;;;;9.21;73.75;98354.77;106178;1271;24260;-49
2022/04/07 06:34:28;;;;;;;11.60;2.50;;;;;;;9.25;73.64;98357.11;106099;1271;26152;-49
2022/04/07 06:37:01;;;;;;;9.10;2.00;;;;;;;9.29;73.55;98355.92;106112;1271;22704;-52
2022/04/07 06:39:34;;;;;;;8.90;2.30;;;;;;;9.32;73.64;98356.67;105934;1271;22686;-52
2022/04/07 06:42:07;;;;;;;10.50;2.80;;;;;;;9.35;73.48;98356.94;106098;1271;25362;-51
2022/04/07 06:44:38;;;;;;;8.90;2.50;;;;;;;9.39;73.48;98349.17;106065;1271;22711;-54
2022/04/07 06:47:10;;;;;;;9.20;1.90;;;;;;;9.44;73.70;98341.35;106124;1271;22544;-52
2022/04/07 06:49:42;;;;;;;9.00;2.20;;;;;;;9.51;73.58;98341.29;106076;1271;24217;-50
2022/04/07 06:52:13;;;;;;;12.00;2.50;;;;;;;9.59;73.59;98338.61;106171;1271;22541;-50
2022/04/07 06:54:45;;;;;;;9.90;1.80;;;;;;;9.68;73.70;98336.57;106346;1271;25850;-52
2022/04/07 06:57:17;;;;;;;11.40;2.40;;;;;;;9.77;73.53;98339.06;106174;1270;22975;-53
2022/04/07 06:59:50;;;;;;;7.30;2.00;;;;;;;9.90;73.60;98339.58;106080;1270;23926;-51
2022/04/07 07:09:30;;;;;;;9.60;2.00;;;;;;;10.42;73.28;98326.77;106289;1258;23007;-53
2022/04/07 07:12:01;;;;;;;8.10;1.60;;;;;;;10.55;72.70;98324.43;106005;1270;22546;-55
2022/04/07 07:14:33;;;;;;;7.50;1.40;;;;;;;10.67;72.39;98316.69;105853;1270;22537;-56
2022/04/07 07:17:06;;;;;;;7.30;1.40;;;;;;;10.76;72.14;98309.61;105839;1270;22561;-53
2022/04/07 07:19:37;;;;;;;5.50;1.70;;;;;;;10.82;71.89;98306.73;105889;1270;23200;-55
2022/04/07 07:22:09;;;;;;;7.80;1.40;;;;;;;10.90;71.92;98304.82;105953;1270;25241;-52
2022/04/07 07:24:40;;;;;;;5.40;1.30;;;;;;;10.95;71.63;98308.96;105887;1270;25328;-51
2022/04/07 07:27:12;;;;;;;5.10;1.40;;;;;;;11.00;71.75;98307.37;105892;1270;22551;-53
2022/04/07 07:29:44;;;;;;;5.10;1.30;;;;;;;11.12;71.45;98304.46;106003;1270;22620;-53
2022/04/07 07:32:17;;;;;;;3.40;1.00;;;;;;;11.22;71.47;98297.51;105962;1270;25311;-54
2022/04/07 07:34:49;;;;;;;3.60;1.30;;;;;;;11.31;71.34;98297.73;105953;1270;22519;-53
2022/04/07 07:37:21;;;;;;;4.00;1.00;;;;;;;11.43;71.50;98296.94;105949;1270;23010;-53
2022/04/07 07:39:52;;;;;;;7.40;1.10;;;;;;;11.57;71.01;98298.85;105827;1270;24228;-54
2022/04/07 07:42:24;;;;;;;3.90;0.90;;;;;;;11.69;70.82;98293.61;105975;1270;24432;-58
2022/04/07 07:44:55;;;;;;;7.50;1.00;;;;;;;11.79;70.86;98288.16;105943;1270;22554;-55
2022/04/07 07:47:27;;;;;;;3.80;0.80;;;;;;;11.88;70.72;98285.76;106058;1270;22994;-52
2022/04/07 07:49:59;;;;;;;5.20;0.80;;;;;;;11.97;70.39;98280.25;105927;1270;22630;-53
2022/04/07 07:52:31;;;;;;;4.40;1.00;;;;;;;12.07;70.14;98278.23;105832;1270;22557;-51
2022/04/07 07:55:03;;;;;;;5.80;1.10;;;;;;;12.16;70.17;98266.17;105943;1271;25373;-54
2022/04/07 07:57:35;;;;;;;5.00;0.90;;;;;;;12.24;69.54;98261.45;105975;1270;25327;-53
2022/04/07 08:00:09;;;;;;;3.90;0.90;;;;;;;12.31;69.32;98256.88;106105;1270;25345;-55
2022/04/07 08:02:41;;;;;;;3.10;0.80;;;;;;;12.35;68.99;98247.39;106137;1270;22549;-54
2022/04/07 08:05:13;;;;;;;4.70;1.70;;;;;;;12.40;68.88;98250.59;105954;1270;23069;-55
2022/04/07 08:07:46;;;;;;;7.70;0.90;;;;;;;12.45;69.05;98250.85;106017;1270;22712;-52
2022/04/07 08:10:20;;;;;;;4.70;0.90;;;;;;;12.52;68.78;98250.25;105947;1270;22525;-53
2022/04/07 08:12:51;;;;;;;4.10;0.80;;;;;;;12.61;68.57;98244.21;105857;1270;25428;-53
2022/04/07 08:15:24;;;;;;;4.50;0.90;;;;;;;12.71;68.15;98247.35;105924;1270;24432;-52
2022/04/07 08:17:56;;;;;;;3.30;0.70;;;;;;;12.77;67.99;98260.96;105936;1270;24226;-52
2022/04/07 08:20:27;;;;;;;6.00;0.80;;;;;;;12.80;67.82;98267.56;105855;1270;22547;-56
2022/04/07 08:22:59;;;;;;;7.20;0.80;;;;;;;12.80;67.42;98267.71;105898;1270;22525;-54
2022/04/07 08:25:31;;;;;;;3.50;0.90;;;;;;;12.84;67.50;98266.93;105880;1271;22522;-52
2022/04/07 08:28:03;;;;;;;5.60;0.90;;;;;;;12.93;67.72;98262.61;105931;1271;22870;-55
2022/04/07 08:30:35;;;;;;;4.80;0.90;;;;;;;13.05;66.96;98258.23;105857;1270;22615;-56
2022/04/07 08:33:07;;;;;;;3.00;0.70;;;;;;;13.13;66.38;98258.83;105939;1270;22599;-55
2022/04/07 08:35:39;;;;;;;3.10;0.80;;;;;;;13.18;66.04;98256.92;106113;1270;24221;-56
2022/04/07 08:38:14;;;;;;;4.50;0.90;;;;;;;13.26;66.09;98258.42;106035;1270;24166;-53
2022/04/07 08:40:50;;;;;;;3.20;0.80;;;;;;;13.36;65.96;98252.06;105995;1270;22549;-54
2022/04/07 08:43:22;;;;;;;7.70;0.80;;;;;;;13.48;65.80;98252.19;105761;1270;22548;-54
2022/04/07 08:45:54;;;;;;;6.90;0.80;;;;;;;13.58;65.82;98240.06;105874;1271;22550;-52
2022/04/07 08:48:26;;;;;;;5.30;0.70;;;;;;;13.65;65.30;98240.08;105823;1271;22691;-53
2022/04/07 08:50:59;;;;;;;1.60;0.50;;;;;;;13.74;64.96;98230.17;105974;1270;24357;-51
2022/04/07 08:53:31;;;;;;;2.50;0.50;;;;;;;13.86;64.20;98233.43;105999;1270;23074;-52
2022/04/07 08:56:04;;;;;;;1.80;0.50;;;;;;;13.97;64.02;98221.73;105968;1270;22524;-53
2022/04/07 08:58:35;;;;;;;2.90;0.50;;;;;;;14.02;63.44;98216.73;105903;1270;25354;-59
2022/04/07 09:01:07;;;;;;;1.30;0.40;;;;;;;14.04;62.50;98214.94;106105;1270;22553;-57
2022/04/07 09:03:38;;;;;;;2.30;0.40;;;;;;;14.03;61.49;98216.02;106027;1271;24268;-55
2022/04/07 09:06:10;;;;;;;2.00;0.50;;;;;;;14.01;61.37;98214.62;105961;1271;22767;-53
2022/04/07 09:08:42;;;;;;;2.70;0.50;;;;;;;14.03;61.50;98211.18;106014;1270;22547;-51
2022/04/07 09:11:14;;;;;;;1.80;0.40;;;;;;;14.03;61.21;98217.06;105875;1270;22535;-55
2022/04/07 09:13:46;;;;;;;2.00;0.40;;;;;;;13.99;60.36;98214.16;105906;1271;23961;-52
2022/04/07 09:16:18;;;;;;;2.10;0.50;;;;;;;13.97;60.69;98214.98;105890;1270;25220;-55
2022/04/07 09:18:52;;;;;;;4.60;0.50;;;;;;;13.98;60.40;98208.67;106090;1270;24267;-55
2022/04/07 09:21:28;;;;;;;3.60;0.60;;;;;;;14.02;60.45;98208.54;106046;1270;24765;-56
2022/04/07 09:24:00;;;;;;;2.50;0.70;;;;;;;14.07;60.09;98202.88;105967;1270;22545;-52
2022/04/07 09:26:34;;;;;;;5.10;0.80;;;;;;;14.15;60.51;98205.01;106010;1270;24247;-54
2022/04/07 09:29:14;;;;;;;2.30;0.60;;;;;;;14.23;60.49;98207.08;105996;1270;22883;-56
2022/04/07 09:31:54;;;;;;;6.20;0.60;;;;;;;14.35;60.76;98204.71;105961;1270;22866;-54
2022/04/07 09:34:34;;;;;;;3.40;0.50;;;;;;;14.47;60.31;98198.66;105658;1270;306865;-54
2022/04/07 09:37:10;;;;;;;3.40;0.70;;;;;;;14.54;59.31;98189.14;105849;1270;22551;-56
2022/04/07 09:39:43;;;;;;;3.50;0.70;;;;;;;14.55;58.69;98186.98;105965;1270;25457;-53
2022/04/07 09:42:23;;;;;;;3.00;0.60;;;;;;;14.55;59.55;98183.87;105919;1270;24311;-53
2022/04/07 09:44:58;;;;;;;6.10;1.10;;;;;;;14.65;58.89;98180.16;105940;1270;22541;-54
2022/04/07 09:47:38;;;;;;;3.20;0.80;;;;;;;14.74;59.16;98176.27;106000;1271;25391;-53
2022/04/07 09:50:10;;;;;;;;;;;;;;;14.82;59.02;98166.42;106016;1270;22503;-52
2022/04/07 09:52:55;;;;;;;4.30;0.70;;;;;;;14.89;59.36;98158.95;105825;1270;22605;-54
2022/04/07 09:55:30;;;;;;;3.60;0.60;;;;;;;14.99;58.69;98155.45;105836;1270;23318;-54
2022/04/07 09:58:03;;;;;;;2.90;0.60;;;;;;;15.05;57.93;98148.46;105936;1270;22528;-55
2022/04/07 10:00:35;;;;;;;4.90;0.80;;;;;;;15.17;58.61;98139.78;106123;1270;22538;-55
2022/04/07 10:03:08;;;;;;;3.40;0.50;;;;;;;15.37;58.07;98137.51;105926;1271;22526;-56
2022/04/07 10:05:40;;;;;;;3.20;0.70;;;;;;;15.51;57.44;98127.81;105948;1270;25281;-54
2022/04/07 10:08:12;;;;;;;2.00;0.50;;;;;;;15.53;57.21;98127.70;106075;1270;22548;-53
2022/04/07 10:10:45;;;;;;;6.40;0.50;;;;;;;15.49;56.05;98123.13;106068;1270;22522;-53
2022/04/07 10:13:17;;;;;;;3.80;1.60;;;;;;;15.42;55.94;98118.95;105892;1270;22561;-55
2022/04/07 10:15:52;;;;;;;4.10;0.40;;;;;;;15.34;55.64;98112.27;105869;1270;24455;-56
2022/04/07 10:18:35;;;;;;;2.40;0.70;;;;;;;15.27;56.17;98103.23;106054;1270;22535;-55
2022/04/07 10:21:11;;;;;;;2.00;0.30;;;;;;;15.22;55.39;98098.40;106098;1271;25369;-56
2022/04/07 10:23:58;;;;;;;1.10;0.20;;;;;;;15.23;55.49;98096.12;105997;1270;22859;-53
2022/04/07 10:26:32;;;;;;;0.80;0.20;;;;;;;15.28;55.54;98087.61;105967;1270;25550;-56
2022/04/07 10:29:04;;;;;;;2.80;0.40;;;;;;;15.32;55.02;98083.75;105969;1270;22613;-56
2022/04/07 10:31:36;;;;;;;2.80;0.40;;;;;;;15.35;54.28;98081.20;106007;1271;22691;-55
2022/04/07 10:34:10;;;;;;;5.10;0.90;;;;;;;15.39;54.19;98073.85;105960;1270;23188;-57
2022/04/07 10:36:43;;;;;;;4.60;0.50;;;;;;;15.44;54.79;98066.27;105874;1271;23561;-56
2022/04/07 10:39:16;;;;;;;1.40;0.40;;;;;;;15.53;54.54;98065.73;106011;1270;24390;-54
2022/04/07 10:41:51;;;;;;;3.50;0.60;;;;;;;15.65;54.24;98061.02;105968;1271;25430;-54
2022/04/07 10:44:26;;;;;;;2.10;0.50;;;;;;;15.74;54.12;98055.77;105851;1270;25513;-55
2022/04/07 10:47:08;;;;;;;3.50;0.50;;;;;;;15.83;54.44;98042.66;105919;1271;24294;-54
2022/04/07 10:49:49;;;;;;;1.50;0.30;;;;;;;15.92;53.97;98043.73;105945;1270;24289;-57
2022/04/07 10:52:30;;;;;;;3.60;0.50;;;;;;;15.93;53.16;98049.23;105943;1271;22551;-55
2022/04/07 10:55:13;;;;;;;;;;;;;;;15.91;53.64;98039.45;106018;1270;25540;-56
2022/04/07 10:58:14;;;;;;;1.80;0.30;;;;;;;15.86;52.85;98039.75;106055;1270;22636;-56
2022/04/07 11:00:46;;;;;;;1.60;0.40;;;;;;;15.81;52.70;98037.03;106237;1270;25180;-57
2022/04/07 11:03:19;;;;;;;2.10;0.40;;;;;;;15.74;52.72;98028.79;105928;1271;22541;-57
2022/04/07 11:06:02;;;;;;;2.00;0.40;;;;;;;15.73;52.43;98022.09;106033;1271;22525;-55
2022/04/07 11:08:34;;;;;;;1.20;0.30;;;;;;;15.75;51.97;98015.77;105931;1271;22564;-56
2022/04/07 11:11:07;;;;;;;1.40;0.30;;;;;;;15.74;51.68;98012.90;105971;1271;25349;-56
2022/04/07 11:13:50;;;;;;;1.40;0.30;;;;;;;15.77;51.98;98011.50;105912;1270;24325;-56
2022/04/07 11:16:30;;;;;;;1.80;0.20;;;;;;;15.82;51.06;97994.94;105914;1271;25509;-55
2022/04/07 11:19:17;;;;;;;0.60;0.20;;;;;;;15.83;51.36;97991.35;105965;1271;22523;-52
2022/04/07 11:21:52;;;;;;;3.30;0.20;;;;;;;15.86;51.04;97990.52;105843;1271;26646;-57
2022/04/07 11:24:34;;;;;;;2.50;0.30;;;;;;;15.86;50.89;97986.41;105933;1270;22838;-54
2022/04/07 11:27:36;;;;;;;2.30;0.20;;;;;;;15.81;50.05;97984.67;105971;1271;22609;-55
2022/04/07 11:30:10;;;;;;;2.00;0.30;;;;;;;15.74;50.43;97984.65;105845;1271;25522;-56
2022/04/07 11:33:02;;;;;;;0.80;0.20;;;;;;;15.68;49.70;97975.80;106077;1271;24258;-58
2022/04/07 11:35:33;;;;;;;4.50;0.30;;;;;;;15.62;49.68;97979.90;105926;1271;24256;-57
2022/04/07 11:38:05;;;;;;;1.50;0.20;;;;;;;15.67;50.12;97965.15;105930;1270;22544;-54
2022/04/07 11:40:38;;;;;;;2.50;0.30;;;;;;;15.75;50.45;97950.40;105900;1271;24391;-55
2022/04/07 11:43:11;;;;;;;1.20;0.20;;;;;;;15.83;49.98;97941.85;105949;1271;25379;-53
2022/04/07 11:45:46;;;;;;;2.50;0.40;;;;;;;15.87;49.33;97940.67;105909;1270;22562;-54
2022/04/07 11:48:17;;;;;;;1.70;0.30;;;;;;;15.86;49.57;97928.00;105956;1270;22540;-53
2022/04/07 11:50:50;;;;;;;1.60;0.30;;;;;;;15.88;49.11;97916.52;105871;1271;24272;-53
2022/04/07 11:53:21;;;;;;;2.40;0.30;;;;;;;15.86;49.45;97911.19;105997;1271;22537;-55
2022/04/07 11:55:53;;;;;;;1.40;0.20;;;;;;;15.87;49.78;97911.67;105821;1271;22534;-55
2022/04/07 11:58:29;;;;;;;4.70;0.30;;;;;;;15.93;49.85;97913.59;105925;1271;25342;-57
2022/04/07 12:01:11;;;;;;;1.80;0.20;;;;;;;16.02;49.90;97915.59;105892;1270;26192;-56